Time;durP1;ratioP1;P1;durP2;ratioP2;P2;SDS_P1;SDS_P2;PMS_P1;PMS_P2;Temp;Humidity;BMP_temperature;BMP_pressure;BME280_temperature;BME280_humidity;BME280_pressure;Samples;Min_cycle;Max_cycle;Signal;HPM_P1;HPM_P2
2022/01/26 00:06:41;;;;;;;;;33.00;30.25;;;;;;;;6283907;22;45433;-93
2022/01/26 00:09:07;;;;;;;;;30.50;29.25;;;;;;;;6254090;22;45393;-92
2022/01/26 00:11:36;;;;;;;;;25.00;19.50;;;;;;;;6252397;22;45391;-93
2022/01/26 00:14:02;;;;;;;;;38.00;27.25;;;;;;;;6246337;22;45479;-93
2022/01/26 00:16:37;;;;;;;;;35.00;31.50;;;;;;;;6246990;22;47305;-92
2022/01/26 00:19:03;;;;;;;;;36.50;32.25;;;;;;;;6247949;22;45384;-92
2022/01/26 00:21:33;;;;;;;;;35.25;23.25;;;;;;;;6245530;22;45260;-92
2022/01/26 00:24:53;;;;;;;;;48.00;32.25;;;;;;;;6245638;22;45358;-91
2022/01/26 00:29:23;;;;;;;;;35.00;29.50;;;;;;;;6268195;22;45377;-92
2022/01/26 00:40:25;;;;;;;;;35.25;25.75;;;;;;;;6119883;23;45429;-93
2022/01/26 00:42:55;;;;;;;;;37.25;30.25;;;;;;;;6119496;23;45360;-93
2022/01/26 00:45:24;;;;;;;;;43.75;35.25;;;;;;;;6127138;23;45293;-93
2022/01/26 00:47:50;;;;;;;;;40.75;30.75;;;;;;;;6126462;23;48018;-91
2022/01/26 00:50:16;;;;;;;;;34.00;26.25;;;;;;;;6127203;23;45722;-91
2022/01/26 00:52:44;;;;;;;;;33.25;28.00;;;;;;;;6121638;23;45494;-92
2022/01/26 00:55:11;;;;;;;;;22.50;19.75;;;;;;;;6118583;23;45359;-92
2022/01/26 00:57:37;;;;;;;;;35.25;30.25;;;;;;;;6124129;23;47144;-92
2022/01/26 01:00:05;;;;;;;;;38.50;27.00;;;;;;;;6135154;23;45358;-92
2022/01/26 01:02:32;;;;;;;;;36.75;29.00;;;;;;;;6126309;23;45343;-92
2022/01/26 01:05:00;;;;;;;;;31.25;23.75;;;;;;;;6123170;23;45543;-92
2022/01/26 01:07:25;;;;;;;;;40.75;29.00;;;;;;;;6120375;23;47645;-92
2022/01/26 01:09:50;;;;;;;;;33.50;30.50;;;;;;;;6118866;23;45718;-93
2022/01/26 01:12:16;;;;;;;;;30.75;27.00;;;;;;;;6266448;22;45564;-93
2022/01/26 01:14:43;;;;;;;;;23.00;16.25;;;;;;;;6245268;22;45433;-93
2022/01/26 01:17:19;;;;;;;;;36.50;32.50;;;;;;;;6245097;22;47478;-93
2022/01/26 01:20:01;;;;;;;;;42.50;32.00;;;;;;;;6244720;22;45421;-93
2022/01/26 01:25:29;;;;;;;;;39.75;30.75;;;;;;;;6282867;22;45255;-93
2022/01/26 01:30:33;;;;;;;;;40.00;30.75;;;;;;;;6276171;22;45345;-91
2022/01/26 01:33:09;;;;;;;;;33.75;29.25;;;;;;;;6245568;22;45377;-91
2022/01/26 01:35:37;;;;;;;;;38.00;29.50;;;;;;;;6273586;22;45327;-92
2022/01/26 01:38:09;;;;;;;;;41.00;34.00;;;;;;;;6265289;22;47181;-93
2022/01/26 01:40:38;;;;;;;;;40.75;31.50;;;;;;;;6267471;22;45377;-92
2022/01/26 01:43:04;;;;;;;;;40.50;32.25;;;;;;;;6267825;22;45318;-91
2022/01/26 01:45:30;;;;;;;;;31.75;26.00;;;;;;;;6289802;22;45191;-93
2022/01/26 01:47:56;;;;;;;;;42.75;30.75;;;;;;;;6249529;22;47108;-93
2022/01/26 01:50:21;;;;;;;;;37.00;31.25;;;;;;;;6246961;22;45285;-93
2022/01/26 01:52:46;;;;;;;;;38.00;33.00;;;;;;;;6249388;22;45523;-93
2022/01/26 01:55:11;;;;;;;;;40.75;34.50;;;;;;;;6247814;22;45783;-93
2022/01/26 01:57:37;;;;;;;;;37.50;33.25;;;;;;;;6280012;22;45474;-93
2022/01/26 02:00:03;;;;;;;;;46.00;35.25;;;;;;;;6255103;22;45348;-93
2022/01/26 02:02:28;;;;;;;;;35.00;34.50;;;;;;;;6252165;22;45448;-92
2022/01/26 02:04:54;;;;;;;;;33.00;29.75;;;;;;;;6250320;22;45471;-93
2022/01/26 02:07:19;;;;;;;;;41.00;31.50;;;;;;;;6245209;22;48630;-93
2022/01/26 02:09:44;;;;;;;;;35.25;30.50;;;;;;;;6244698;22;45295;-93
2022/01/26 02:12:14;;;;;;;;;41.25;32.00;;;;;;;;6272599;22;45369;-93
2022/01/26 02:14:44;;;;;;;;;38.50;29.25;;;;;;;;6244744;22;45303;-92
2022/01/26 02:17:29;;;;;;;;;35.00;28.50;;;;;;;;6243482;22;47270;-93
2022/01/26 02:57:39;;;;;;;;;28.75;24.75;;;;;;;;6059369;23;45174;-94
2022/01/26 03:00:22;;;;;;;;;27.75;22.25;;;;;;;;6034812;23;47670;-94
2022/01/26 03:05:21;;;;;;;;;33.25;28.75;;;;;;;;6063957;23;45367;-94
2022/01/26 03:07:56;;;;;;;;;31.50;26.00;;;;;;;;6069464;23;45264;-94
2022/01/26 03:10:34;;;;;;;;;35.75;26.00;;;;;;;;6044316;23;48174;-93
2022/01/26 03:13:14;;;;;;;;;35.00;30.50;;;;;;;;6038272;23;45278;-93
2022/01/26 03:15:44;;;;;;;;;30.50;21.75;;;;;;;;6091925;22;45397;-93
2022/01/26 03:18:49;;;;;;;;;32.50;30.00;;;;;;;;6205326;22;45517;-93
2022/01/26 03:21:14;;;;;;;;;36.00;28.75;;;;;;;;6271926;22;45254;-94
2022/01/26 03:29:25;;;;;;;;;30.50;24.50;;;;;;;;6146272;23;45478;-93
2022/01/26 03:34:18;;;;;;;;;31.25;26.50;;;;;;;;6147842;23;45481;-94
2022/01/26 03:36:50;;;;;;;;;35.75;28.50;;;;;;;;6149497;23;45499;-93
2022/01/26 03:39:19;;;;;;;;;34.50;28.75;;;;;;;;6155127;23;45360;-94
2022/01/26 03:41:51;;;;;;;;;33.75;30.25;;;;;;;;6157278;23;48036;-93
2022/01/26 03:44:17;;;;;;;;;34.50;29.50;;;;;;;;6154683;23;45406;-93
2022/01/26 03:46:42;;;;;;;;;38.75;28.00;;;;;;;;6151819;23;45278;-93
2022/01/26 03:49:09;;;;;;;;;33.25;29.00;;;;;;;;6148303;23;45240;-93
2022/01/26 03:51:34;;;;;;;;;33.75;29.00;;;;;;;;6148566;23;47062;-94
2022/01/26 03:54:00;;;;;;;;;39.75;28.00;;;;;;;;6147778;23;45407;-92
2022/01/26 03:56:25;;;;;;;;;36.00;30.25;;;;;;;;6147657;23;45543;-92
2022/01/26 03:58:50;;;;;;;;;39.25;29.00;;;;;;;;6147599;23;45607;-93
2022/01/26 04:01:16;;;;;;;;;31.75;29.00;;;;;;;;6148407;23;47210;-93
2022/01/26 04:03:41;;;;;;;;;37.75;33.50;;;;;;;;6147322;23;45436;-93
2022/01/26 04:06:06;;;;;;;;;31.50;24.25;;;;;;;;6202016;22;45249;-93
2022/01/26 04:08:33;;;;;;;;;30.00;27.75;;;;;;;;6273079;22;45499;-93
2022/01/26 04:13:30;;;;;;;;;33.75;31.25;;;;;;;;6282961;22;45420;-93
2022/01/26 04:15:55;;;;;;;;;38.25;30.50;;;;;;;;6255038;22;45235;-93
2022/01/26 04:18:27;;;;;;;;;11.75;6.00;;;;;;;;6253814;22;45275;-93
2022/01/26 04:20:55;;;;;;;;;38.75;33.00;;;;;;;;6245286;22;47235;-93
2022/01/26 04:23:30;;;;;;;;;46.00;31.00;;;;;;;;6245209;22;45547;-93
2022/01/26 04:25:56;;;;;;;;;48.25;34.75;;;;;;;;6245532;22;45173;-93
2022/01/26 04:28:29;;;;;;;;;39.00;29.75;;;;;;;;6244624;22;45654;-93
2022/01/26 04:30:54;;;;;;;;;37.75;31.75;;;;;;;;6245153;22;47323;-93
2022/01/26 04:33:19;;;;;;;;;43.25;35.00;;;;;;;;6245015;22;45294;-93
2022/01/26 04:35:46;;;;;;;;;43.50;30.75;;;;;;;;6244705;22;45589;-93
2022/01/26 04:38:21;;;;;;;;;42.00;32.00;;;;;;;;6245603;22;45469;-93
2022/01/26 04:43:39;;;;;;;;;44.25;32.25;;;;;;;;6117892;23;45479;-92
2022/01/26 04:46:05;;;;;;;;;36.75;29.75;;;;;;;;6118146;23;45429;-93
2022/01/26 04:48:31;;;;;;;;;39.50;31.25;;;;;;;;6127625;23;45723;-93
2022/01/26 04:50:56;;;;;;;;;41.25;35.25;;;;;;;;6102950;23;46966;-92
2022/01/26 04:53:21;;;;;;;;;43.25;36.00;;;;;;;;6127056;23;45703;-91
2022/01/26 04:55:46;;;;;;;;;44.75;33.75;;;;;;;;6123962;23;45794;-93
2022/01/26 04:58:12;;;;;;;;;41.50;36.00;;;;;;;;6118723;23;45470;-93
2022/01/26 05:00:37;;;;;;;;;44.25;36.25;;;;;;;;6118655;23;47109;-92
2022/01/26 05:03:02;;;;;;;;;39.50;32.75;;;;;;;;6118932;23;45577;-93
2022/01/26 05:05:27;;;;;;;;;40.25;36.25;;;;;;;;6117527;23;45553;-93
2022/01/26 05:07:53;;;;;;;;;43.25;34.75;;;;;;;;6118078;23;45352;-93
2022/01/26 05:10:18;;;;;;;;;48.25;33.50;;;;;;;;6119105;23;45363;-93
2022/01/26 05:12:44;;;;;;;;;49.75;33.00;;;;;;;;6118551;23;45313;-93
2022/01/26 05:15:09;;;;;;;;;46.00;36.00;;;;;;;;6118702;23;45626;-93
2022/01/26 05:17:36;;;;;;;;;42.75;32.75;;;;;;;;6119683;23;45569;-93
2022/01/26 05:20:01;;;;;;;;;51.25;42.50;;;;;;;;6155937;22;45466;-93
2022/01/26 05:22:29;;;;;;;;;49.25;37.00;;;;;;;;6262872;22;45156;-93
2022/01/26 05:24:54;;;;;;;;;48.00;38.00;;;;;;;;6299715;22;44585;-92
2022/01/26 05:27:19;;;;;;;;;44.25;32.00;;;;;;;;6273773;22;44741;-93
2022/01/26 05:29:45;;;;;;;;;48.25;40.00;;;;;;;;6273906;22;47518;-92
2022/01/26 05:32:10;;;;;;;;;51.50;40.75;;;;;;;;6256642;22;45278;-93
2022/01/26 05:34:36;;;;;;;;;44.25;37.75;;;;;;;;6280375;22;45272;-93
2022/01/26 05:37:01;;;;;;;;;45.25;37.75;;;;;;;;6274620;22;45243;-93
2022/01/26 05:39:26;;;;;;;;;49.75;38.75;;;;;;;;6245855;22;47729;-93
2022/01/26 05:41:52;;;;;;;;;52.00;42.75;;;;;;;;6246817;22;45717;-93
2022/01/26 05:44:17;;;;;;;;;58.00;44.50;;;;;;;;6245784;22;45416;-92
2022/01/26 05:46:47;;;;;;;;;64.00;45.25;;;;;;;;6246814;22;45328;-92
2022/01/26 05:49:13;;;;;;;;;64.25;48.25;;;;;;;;6272636;22;46231;-93
2022/01/26 05:51:38;;;;;;;;;53.50;38.25;;;;;;;;6245628;22;45743;-93
2022/01/26 05:54:04;;;;;;;;;54.75;39.00;;;;;;;;6243912;22;45484;-93
2022/01/26 05:56:30;;;;;;;;;62.00;43.25;;;;;;;;6245723;22;45262;-92
2022/01/26 05:58:55;;;;;;;;;51.75;42.50;;;;;;;;6244634;22;47449;-93
2022/01/26 06:01:21;;;;;;;;;55.75;42.50;;;;;;;;6245594;22;45360;-92
2022/01/26 06:03:47;;;;;;;;;52.75;41.50;;;;;;;;6244507;22;45341;-92
2022/01/26 06:06:12;;;;;;;;;52.00;40.75;;;;;;;;6245525;22;45295;-93
2022/01/26 06:08:37;;;;;;;;;67.00;50.00;;;;;;;;6246913;22;47832;-93
2022/01/26 06:11:04;;;;;;;;;37.50;24.25;;;;;;;;6254062;22;45400;-93
2022/01/26 06:13:29;;;;;;;;;67.00;51.50;;;;;;;;6254244;22;45581;-93
2022/01/26 06:15:55;;;;;;;;;74.25;54.00;;;;;;;;6254073;22;45622;-92
2022/01/26 06:18:20;;;;;;;;;67.75;49.00;;;;;;;;6245998;22;47910;-93
2022/01/26 06:20:45;;;;;;;;;62.75;44.75;;;;;;;;6244535;22;45657;-93
2022/01/26 06:23:11;;;;;;;;;72.00;59.00;;;;;;;;6245165;22;45330;-93
2022/01/26 06:25:36;;;;;;;;;71.00;54.75;;;;;;;;6245699;22;45347;-93
2022/01/26 06:28:06;;;;;;;;;58.00;43.75;;;;;;;;6245072;22;47210;-91
2022/01/26 06:30:32;;;;;;;;;57.75;47.75;;;;;;;;6245262;22;45776;-93
2022/01/26 06:32:57;;;;;;;;;62.25;45.75;;;;;;;;6245413;22;45395;-93
2022/01/26 06:35:23;;;;;;;;;68.50;53.50;;;;;;;;6244159;22;45313;-91
2022/01/26 06:37:48;;;;;;;;;57.25;47.25;;;;;;;;6243899;22;47293;-92
2022/01/26 06:40:14;;;;;;;;;63.00;50.00;;;;;;;;6244883;22;45385;-93
2022/01/26 06:43:01;;;;;;;;;69.00;48.75;;;;;;;;6244816;22;45330;-93
2022/01/26 06:45:33;;;;;;;;;70.50;54.00;;;;;;;;6244508;22;45849;-94
2022/01/26 06:50:42;;;;;;;;;61.25;45.00;;;;;;;;6281216;22;45393;-94
2022/01/26 06:53:08;;;;;;;;;55.25;45.50;;;;;;;;6253501;22;45656;-94
2022/01/26 06:55:33;;;;;;;;;48.00;40.25;;;;;;;;6251876;22;45355;-94
2022/01/26 06:57:59;;;;;;;;;65.00;46.00;;;;;;;;6246912;22;47128;-92
2022/01/26 07:00:25;;;;;;;;;64.75;49.25;;;;;;;;6245391;22;45361;-92
2022/01/26 07:02:50;;;;;;;;;58.25;43.75;;;;;;;;6244500;22;45324;-92
2022/01/26 07:05:15;;;;;;;;;61.00;47.25;;;;;;;;6242934;22;45286;-93
2022/01/26 07:07:41;;;;;;;;;65.50;48.75;;;;;;;;6242687;22;47698;-92
2022/01/26 07:10:07;;;;;;;;;68.50;50.75;;;;;;;;6242951;22;45713;-92
2022/01/26 07:12:32;;;;;;;;;82.25;59.25;;;;;;;;6243282;22;45267;-92
2022/01/26 07:22:53;;;;;;;;;59.00;46.25;;;;;;;;6271068;22;45361;-91
2022/01/26 07:25:18;;;;;;;;;52.00;42.25;;;;;;;;6243573;22;45397;-92
2022/01/26 07:27:45;;;;;;;;;49.00;41.75;;;;;;;;6246340;22;46198;-93
2022/01/26 07:30:11;;;;;;;;;61.50;48.25;;;;;;;;6252925;22;45318;-94
2022/01/26 07:32:37;;;;;;;;;62.00;36.25;;;;;;;;6254219;22;45819;-94
2022/01/26 07:35:05;;;;;;;;;71.25;54.50;;;;;;;;6248656;22;45184;-93
2022/01/26 07:37:31;;;;;;;;;63.50;51.75;;;;;;;;6246186;22;47597;-96
2022/01/26 07:40:09;;;;;;;;;48.00;39.75;;;;;;;;6251040;22;45873;-91
2022/01/26 07:42:35;;;;;;;;;64.00;45.75;;;;;;;;6275743;22;45194;-94
2022/01/26 07:45:01;;;;;;;;;63.75;46.25;;;;;;;;6243842;22;45525;-89
2022/01/26 07:47:26;;;;;;;;;47.25;39.50;;;;;;;;6239946;22;48504;-89
2022/01/26 07:49:56;;;;;;;;;58.00;44.50;;;;;;;;6287543;22;45209;-89
2022/01/26 07:52:23;;;;;;;;;54.75;41.75;;;;;;;;6273698;22;45639;-88
2022/01/26 07:54:51;;;;;;;;;52.50;42.25;;;;;;;;6255098;22;45708;-87
2022/01/26 07:57:17;;;;;;;;;60.25;45.75;;;;;;;;6252476;22;47245;-89
2022/01/26 07:59:42;;;;;;;;;58.75;40.25;;;;;;;;6247625;22;45348;-89
2022/01/26 08:02:07;;;;;;;;;45.00;33.50;;;;;;;;6275043;22;45475;-88
2022/01/26 08:04:33;;;;;;;;;60.25;43.25;;;;;;;;6273981;22;45694;-88
2022/01/26 08:06:58;;;;;;;;;54.50;41.75;;;;;;;;6277569;22;46467;-88
2022/01/26 08:09:23;;;;;;;;;63.00;45.75;;;;;;;;6276955;22;45251;-87
2022/01/26 08:11:48;;;;;;;;;53.00;41.75;;;;;;;;6278343;22;45352;-88
2022/01/26 08:14:13;;;;;;;;;59.75;44.50;;;;;;;;6280139;22;45359;-88
2022/01/26 08:16:39;;;;;;;;;61.00;45.00;;;;;;;;6279239;22;45422;-88
2022/01/26 08:19:04;;;;;;;;;60.25;46.00;;;;;;;;6275983;22;45302;-93
2022/01/26 08:21:30;;;;;;;;;58.00;43.75;;;;;;;;6256667;22;45662;-96
2022/01/26 08:24:03;;;;;;;;;57.75;44.50;;;;;;;;6226483;22;45258;-96
2022/01/26 08:26:39;;;;;;;;;59.00;42.00;;;;;;;;6248675;22;47615;-96
2022/01/26 08:29:10;;;;;;;;;47.00;40.75;;;;;;;;6276022;22;45271;-96
2022/01/26 08:31:35;;;;;;;;;56.50;43.75;;;;;;;;6250476;22;45298;-96
2022/01/26 08:34:01;;;;;;;;;62.75;47.25;;;;;;;;6258281;22;45334;-95
2022/01/26 08:36:27;;;;;;;;;65.75;47.75;;;;;;;;6285800;22;45130;-96
2022/01/26 08:38:52;;;;;;;;;56.50;40.50;;;;;;;;6252646;22;45510;-96
2022/01/26 08:41:17;;;;;;;;;65.25;50.00;;;;;;;;6284215;22;45294;-95
2022/01/26 08:43:43;;;;;;;;;64.00;45.25;;;;;;;;6278988;22;45271;-95
2022/01/26 08:46:08;;;;;;;;;59.25;46.50;;;;;;;;6279813;22;45365;-95
2022/01/26 08:48:33;;;;;;;;;57.75;42.75;;;;;;;;6253075;22;45959;-95
2022/01/26 08:50:59;;;;;;;;;54.00;44.50;;;;;;;;6259996;22;45385;-93
2022/01/26 08:53:24;;;;;;;;;54.25;43.75;;;;;;;;6260079;22;45358;-95
2022/01/26 08:55:51;;;;;;;;;61.25;44.50;;;;;;;;6259898;22;46959;-92
2022/01/26 08:58:16;;;;;;;;;45.50;39.75;;;;;;;;6255478;22;45879;-92
2022/01/26 09:00:41;;;;;;;;;65.00;47.00;;;;;;;;6247314;22;45394;-95
2022/01/26 09:03:07;;;;;;;;;54.25;45.25;;;;;;;;6253429;22;45395;-96
2022/01/26 09:05:32;;;;;;;;;52.75;43.00;;;;;;;;6232165;22;47331;-96
2022/01/26 09:07:58;;;;;;;;;54.50;44.25;;;;;;;;6262699;22;45236;-94
2022/01/26 09:10:26;;;;;;;;;59.25;42.75;;;;;;;;6265859;22;45371;-94
2022/01/26 09:12:52;;;;;;;;;56.00;39.75;;;;;;;;6260240;22;44951;-94
2022/01/26 09:15:17;;;;;;;;;56.50;42.75;;;;;;;;6254746;22;47074;-93
2022/01/26 09:17:43;;;;;;;;;52.25;43.50;;;;;;;;6251583;22;45582;-95
2022/01/26 09:20:10;;;;;;;;;50.25;39.50;;;;;;;;6259294;22;45271;-95
2022/01/26 09:22:35;;;;;;;;;42.25;33.00;;;;;;;;6236959;22;45242;-95
2022/01/26 09:25:01;;;;;;;;;49.50;41.25;;;;;;;;6221496;22;47615;-94
2022/01/26 09:27:26;;;;;;;;;59.00;42.50;;;;;;;;6245453;22;45302;-95
2022/01/26 09:29:51;;;;;;;;;52.25;37.50;;;;;;;;6247330;22;45735;-94
2022/01/26 09:32:17;;;;;;;;;48.50;44.00;;;;;;;;6253625;22;45894;-95
2022/01/26 09:34:43;;;;;;;;;48.00;40.00;;;;;;;;6252829;22;47004;-94
2022/01/26 09:37:12;;;;;;;;;54.75;43.25;;;;;;;;6254127;22;45629;-95
2022/01/26 09:39:38;;;;;;;;;63.75;44.75;;;;;;;;6248012;22;45323;-95
2022/01/26 09:42:03;;;;;;;;;67.25;49.25;;;;;;;;6248388;22;45275;-96
2022/01/26 09:44:29;;;;;;;;;50.00;39.25;;;;;;;;6251913;22;47296;-96
2022/01/26 09:46:55;;;;;;;;;60.50;43.00;;;;;;;;6246419;22;45294;-94
2022/01/26 09:49:20;;;;;;;;;62.25;45.75;;;;;;;;6244960;22;45316;-95
2022/01/26 09:51:49;;;;;;;;;51.00;41.25;;;;;;;;6245968;22;45420;-95
2022/01/26 09:54:16;;;;;;;;;65.50;47.50;;;;;;;;6244546;22;47119;-96
2022/01/26 09:56:43;;;;;;;;;63.50;48.75;;;;;;;;6245798;22;45403;-95
2022/01/26 09:59:08;;;;;;;;;59.75;44.25;;;;;;;;6245587;22;45667;-95
2022/01/26 10:01:44;;;;;;;;;59.25;43.75;;;;;;;;6243971;22;45692;-96
2022/01/26 10:04:22;;;;;;;;;63.25;50.75;;;;;;;;6246901;22;48100;-96
2022/01/26 10:07:00;;;;;;;;;57.75;43.25;;;;;;;;6253859;22;45284;-96
2022/01/26 10:09:41;;;;;;;;;68.50;52.75;;;;;;;;6255552;22;45706;-96
2022/01/26 10:17:39;;;;;;;;;62.75;45.25;;;;;;;;6293720;22;45166;-96
2022/01/26 10:20:05;;;;;;;;;61.50;45.25;;;;;;;;6263961;22;45426;-96
2022/01/26 10:22:32;;;;;;;;;70.00;50.25;;;;;;;;6256852;22;45286;-96
2022/01/26 10:25:08;;;;;;;;;51.25;41.50;;;;;;;;6256263;22;48634;-95
2022/01/26 10:27:37;;;;;;;;;57.50;42.50;;;;;;;;6251059;22;45551;-96
2022/01/26 10:30:05;;;;;;;;;59.25;43.75;;;;;;;;6252908;22;45276;-96
2022/01/26 10:32:31;;;;;;;;;48.75;36.00;;;;;;;;6256290;22;45259;-96
2022/01/26 10:35:00;;;;;;;;;55.25;44.75;;;;;;;;6254683;22;47048;-96
2022/01/26 10:37:25;;;;;;;;;58.25;45.50;;;;;;;;6253488;22;45761;-96
2022/01/26 10:39:52;;;;;;;;;53.25;43.25;;;;;;;;6253609;22;45727;-96
2022/01/26 10:42:20;;;;;;;;;61.50;45.00;;;;;;;;6251203;22;45284;-96
2022/01/26 10:47:11;;;;;;;;;68.75;53.75;;;;;;;;6280198;22;44690;-96
2022/01/26 10:52:34;;;;;;;;;62.75;49.75;;;;;;;;6282568;22;45229;-95
2022/01/26 10:55:00;;;;;;;;;55.50;44.00;;;;;;;;6257009;22;47412;-95
2022/01/26 10:57:25;;;;;;;;;48.25;41.00;;;;;;;;6254471;22;46089;-96
2022/01/26 10:59:51;;;;;;;;;61.50;46.00;;;;;;;;6254561;22;45747;-95
2022/01/26 11:02:33;;;;;;;;;55.00;42.00;;;;;;;;6251210;22;45392;-95
2022/01/26 11:04:58;;;;;;;;;60.00;46.75;;;;;;;;6250669;22;47190;-95
2022/01/26 11:07:50;;;;;;;;;50.00;42.00;;;;;;;;6254634;22;45256;-95
2022/01/26 11:10:16;;;;;;;;;58.50;41.25;;;;;;;;6244280;22;45347;-94
2022/01/26 11:12:42;;;;;;;;;60.75;46.00;;;;;;;;6249922;22;45412;-95
2022/01/26 11:15:09;;;;;;;;;52.25;42.00;;;;;;;;6246289;22;45360;-95
2022/01/26 11:17:37;;;;;;;;;53.00;42.75;;;;;;;;6247578;22;45292;-94
2022/01/26 11:20:29;;;;;;;;;61.00;45.00;;;;;;;;6245111;22;45228;-95
2022/01/26 11:23:00;;;;;;;;;66.25;48.75;;;;;;;;6246515;22;45708;-94
2022/01/26 11:25:38;;;;;;;;;54.50;39.75;;;;;;;;6249325;22;46892;-94
2022/01/26 11:28:13;;;;;;;;;61.50;43.75;;;;;;;;6229691;22;45358;-94
2022/01/26 11:30:38;;;;;;;;;63.75;48.25;;;;;;;;6257141;22;45281;-92
2022/01/26 11:33:11;;;;;;;;;59.00;44.25;;;;;;;;6257027;22;45270;-94
2022/01/26 11:35:37;;;;;;;;;58.00;45.25;;;;;;;;6256903;22;47402;-94
2022/01/26 11:46:10;;;;;;;;;66.50;47.00;;;;;;;;6247576;22;45269;-94
2022/01/26 11:48:35;;;;;;;;;58.75;45.50;;;;;;;;6193882;22;45375;-93
2022/01/26 11:51:02;;;;;;;;;56.50;44.00;;;;;;;;6221690;22;45625;-93
2022/01/26 11:53:28;;;;;;;;;55.75;43.50;;;;;;;;6199827;22;45434;-92
2022/01/26 11:56:02;;;;;;;;;53.75;42.75;;;;;;;;6220806;22;47079;-94
2022/01/26 11:58:27;;;;;;;;;55.25;42.25;;;;;;;;6226618;22;45294;-96
2022/01/26 12:01:11;;;;;;;;;62.25;42.00;;;;;;;;6219899;22;45419;-94
2022/01/26 12:03:43;;;;;;;;;54.25;42.00;;;;;;;;6216771;22;45310;-92
2022/01/26 12:06:17;;;;;;;;;59.25;45.50;;;;;;;;6220479;22;48029;-92
2022/01/26 12:08:42;;;;;;;;;63.25;43.00;;;;;;;;6227940;22;44735;-92
2022/01/26 12:11:10;;;;;;;;;54.50;43.00;;;;;;;;6223576;22;45282;-92
2022/01/26 12:13:39;;;;;;;;;53.75;41.00;;;;;;;;6221638;22;45469;-92
2022/01/26 12:16:07;;;;;;;;;49.25;39.75;;;;;;;;6217750;22;46497;-92
2022/01/26 12:18:39;;;;;;;;;58.50;45.75;;;;;;;;6214689;22;45306;-94
2022/01/26 12:38:09;;;;;;;;;56.00;45.50;;;;;;;;6242703;22;45473;-93
2022/01/26 12:43:19;;;;;;;;;59.50;44.75;;;;;;;;6242037;22;45341;-92
2022/01/26 12:45:45;;;;;;;;;67.25;49.00;;;;;;;;6220912;22;45582;-94
2022/01/26 12:48:11;;;;;;;;;54.75;41.00;;;;;;;;6222796;22;47267;-92
2022/01/26 12:50:38;;;;;;;;;60.75;45.50;;;;;;;;6223101;22;45276;-93
2022/01/26 12:53:04;;;;;;;;;68.50;49.00;;;;;;;;6220921;22;45275;-94
2022/01/26 12:55:30;;;;;;;;;57.00;45.00;;;;;;;;6216664;22;45490;-95
2022/01/26 12:57:55;;;;;;;;;62.00;44.00;;;;;;;;6218993;22;46993;-95
2022/01/26 13:00:21;;;;;;;;;66.75;50.50;;;;;;;;6219432;22;45331;-92
2022/01/26 13:02:47;;;;;;;;;61.00;48.25;;;;;;;;6222798;22;45401;-92
2022/01/26 13:05:14;;;;;;;;;61.25;48.25;;;;;;;;6254859;22;45307;-91
2022/01/26 13:07:39;;;;;;;;;62.75;46.00;;;;;;;;6222702;22;47502;-91
2022/01/26 13:10:15;;;;;;;;;59.50;48.25;;;;;;;;6240072;22;45375;-91
2022/01/26 13:12:40;;;;;;;;;61.50;50.00;;;;;;;;6214590;22;45341;-91
2022/01/26 13:15:14;;;;;;;;;67.00;48.50;;;;;;;;6241046;22;45364;-90
2022/01/26 13:17:45;;;;;;;;;67.50;51.50;;;;;;;;6240056;22;45960;-91
2022/01/26 13:23:09;;;;;;;;;59.25;42.75;;;;;;;;6249077;22;45306;-92
2022/01/26 13:28:35;;;;;;;;;70.00;51.75;;;;;;;;6246606;22;46822;-90
2022/01/26 13:36:38;;;;;;;;;67.75;49.75;;;;;;;;6241240;22;45378;-94
2022/01/26 13:44:40;;;;;;;;;67.50;50.25;;;;;;;;6239791;22;45431;-92
2022/01/26 13:59:20;;;;;;;;;53.75;42.50;;;;;;;;6250001;22;45393;-92
2022/01/26 14:01:46;;;;;;;;;56.25;42.25;;;;;;;;6250262;22;45425;-91
2022/01/26 14:04:13;;;;;;;;;52.50;40.00;;;;;;;;6245393;22;45393;-90
2022/01/26 14:06:38;;;;;;;;;59.00;43.25;;;;;;;;6242287;22;45566;-92
2022/01/26 14:09:03;;;;;;;;;50.25;40.50;;;;;;;;6241408;22;45411;-90
2022/01/26 14:11:29;;;;;;;;;53.50;43.25;;;;;;;;6240661;22;45331;-91
2022/01/26 14:13:57;;;;;;;;;52.00;42.00;;;;;;;;6243256;22;45330;-91
2022/01/26 14:16:24;;;;;;;;;52.25;39.25;;;;;;;;6247110;22;45462;-91
2022/01/26 14:19:08;;;;;;;;;46.50;37.75;;;;;;;;6240620;22;47243;-90
2022/01/26 14:21:54;;;;;;;;;38.25;35.75;;;;;;;;6241256;22;45294;-90
2022/01/26 14:26:48;;;;;;;;;56.75;39.50;;;;;;;;6241592;22;45193;-92
2022/01/26 14:40:42;;;;;;;;;36.50;32.50;;;;;;;;6183882;23;45398;-91
2022/01/26 14:51:27;;;;;;;;;72.75;56.00;;;;;;;;6178885;23;45560;-91
2022/01/26 14:54:16;;;;;;;;;39.25;32.25;;;;;;;;6176876;23;45218;-91
2022/01/26 15:35:21;;;;;;;;;41.50;33.75;;;;;;;;6028424;23;45423;-90
2022/01/26 15:40:32;;;;;;;;;52.25;39.25;;;;;;;;6080792;23;45338;-91
2022/01/26 15:43:26;;;;;;;;;43.00;36.75;;;;;;;;6094315;23;45602;-91
2022/01/26 15:51:32;;;;;;;;;45.00;38.75;;;;;;;;6095529;23;45711;-92
2022/01/26 16:07:20;;;;;;;;;46.50;38.25;;;;;;;;6177248;23;45415;-91
2022/01/26 16:12:53;;;;;;;;;53.25;40.00;;;;;;;;6177743;23;45292;-90
2022/01/26 18:04:07;;;;;;;;;65.00;45.00;;;;;;;;6178736;23;45309;-90
2022/01/26 18:13:08;;;;;;;;;64.25;44.75;;;;;;;;6112581;23;45404;-91
2022/01/26 18:17:50;;;;;;;;;72.25;53.50;;;;;;;;6124129;23;45261;-92
2022/01/26 18:50:32;;;;;;;;;56.50;39.25;;;;;;;;6057284;23;45410;-90
2022/01/26 18:52:57;;;;;;;;;64.50;44.00;;;;;;;;6060913;23;45297;-94
2022/01/26 18:55:23;;;;;;;;;75.75;53.50;;;;;;;;6037324;23;45432;-93
2022/01/26 18:57:48;;;;;;;;;64.00;45.25;;;;;;;;6035431;23;47161;-88
2022/01/26 19:00:14;;;;;;;;;61.00;43.75;;;;;;;;6034139;23;45214;-93
2022/01/26 19:02:43;;;;;;;;;48.75;38.75;;;;;;;;6068300;23;45316;-92
2022/01/26 19:05:09;;;;;;;;;56.25;43.00;;;;;;;;6050832;23;44807;-96
2022/01/26 19:07:35;;;;;;;;;55.75;43.75;;;;;;;;6072977;23;47217;-93
2022/01/26 19:10:21;;;;;;;;;63.00;49.00;;;;;;;;6030373;23;44785;-94
2022/01/26 19:12:49;;;;;;;;;64.25;49.25;;;;;;;;6075852;23;44611;-93
2022/01/26 19:15:16;;;;;;;;;53.25;42.75;;;;;;;;6146870;23;45273;-95
2022/01/26 19:18:12;;;;;;;;;50.25;42.75;;;;;;;;6171166;23;46197;-91
2022/01/26 19:21:11;;;;;;;;;60.25;49.00;;;;;;;;6175431;23;45409;-92
2022/01/26 19:29:06;;;;;;;;;56.00;44.50;;;;;;;;6298192;22;45119;-90
2022/01/26 19:43:34;;;;;;;;;51.50;42.00;;;;;;;;6085439;23;45226;-89
2022/01/26 19:46:01;;;;;;;;;51.25;40.00;;;;;;;;6085517;23;45281;-89
2022/01/26 19:51:11;;;;;;;;;58.00;44.50;;;;;;;;6087773;23;45756;-89
2022/01/26 19:53:36;;;;;;;;;49.75;41.00;;;;;;;;6100451;23;46091;-89
2022/01/26 19:56:01;;;;;;;;;59.00;44.50;;;;;;;;6088512;23;45574;-89
2022/01/26 19:58:27;;;;;;;;;54.75;40.50;;;;;;;;6085119;23;45552;-87
2022/01/26 20:00:52;;;;;;;;;51.50;41.00;;;;;;;;6076820;23;48239;-89
2022/01/26 20:03:18;;;;;;;;;56.25;44.25;;;;;;;;6100469;23;45185;-89
2022/01/26 20:05:44;;;;;;;;;49.50;38.75;;;;;;;;6101767;23;45356;-91
2022/01/26 20:08:20;;;;;;;;;53.50;42.25;;;;;;;;6100936;23;45289;-90
2022/01/26 20:10:53;;;;;;;;;54.25;40.25;;;;;;;;6128005;23;47721;-87
2022/01/26 20:51:38;;;;;;;;;;;;;;;;;;;;;
2022/01/26 20:54:27;;;;;;;;;63.00;45.75;;;;;;;;6275195;22;75385;-94
2022/01/26 20:57:08;;;;;;;;;59.00;44.50;;;;;;;;6248276;22;45432;-93
2022/01/26 21:00:09;;;;;;;;;61.00;43.75;;;;;;;;6248863;22;45348;-94
2022/01/26 21:03:12;;;;;;;;;;;;;;;;;;;;;
2022/01/26 21:16:07;;;;;;;;;64.50;43.75;;;;;;;;6042544;23;45351;-94
2022/01/26 21:18:35;;;;;;;;;63.00;47.25;;;;;;;;6046503;23;48188;-96
2022/01/26 21:24:23;;;;;;;;;54.00;35.25;;;;;;;;6032724;23;45405;-96
